Date,TemperatureHighF,TemperatureAvgF,TemperatureLowF,DewpointHighF,DewpointAvgF,DewpointLowF,HumidityHigh,HumidityAvg,HumidityLow,PressureMaxIn,PressureMinIn,WindSpeedMaxMPH,WindSpeedAvgMPH,GustSpeedMaxMPH,PrecipitationSumIn
2013-1-1,70.2,61.3,50.5,69.6,57.5,43.9,99,87,73,30.20,29.86,22,11,27,0.05
2013-1-2,50.4,44.0,41.0,43.4,39.9,36.7,96,86,73,30.33,30.17,14,8,18,0.18
2013-1-3,51.6,46.4,42.8,40.3,36.2,29.9,90,69,44,30.42,30.30,13,8,17,0.01
2013-1-4,51.6,49.8,46.2,39.6,38.0,36.4,73,64,57,30.46,30.35,14,9,19,0.00
2013-1-5,51.1,47.8,44.4,48.2,44.2,38.9,97,87,71,30.39,30.27,13,8,18,0.06
2013-1-6,65.8,52.3,40.6,49.4,44.6,40.1,99,78,41,30.39,30.27,11,5,17,0.00
2013-1-7,65.3,52.6,40.3,55.9,47.9,37.9,99,85,63,30.33,30.01,12,7,16,0.01
2013-1-8,68.7,62.5,55.6,68.5,62.2,55.3,99,99,96,30.00,29.77,17,9,28,0.18
2013-1-9,68.2,63.2,56.5,67.9,62.4,56.2,99,97,89,30.06,29.81,14,6,17,0.30
2013-1-10,70.9,55.7,50.7,56.4,52.7,49.5,99,91,47,30.11,30.01,10,5,14,0.00
2013-1-11,79.5,71.2,50.5,71.3,68.2,50.3,99,91,72,30.05,29.81,20,12,27,0.00
2013-1-12,81.3,74.0,70.5,73.8,72.0,70.3,99,94,74,29.84,29.62,23,15,30,0.00
2013-1-13,72.9,55.3,48.2,72.6,45.1,35.6,99,71,43,30.11,29.69,23,13,29,0.06
2013-1-14,50.0,46.6,43.5,43.4,38.4,34.8,95,73,61,30.20,30.08,15,9,21,0.00
2013-1-15,44.8,43.5,41.9,44.5,41.8,37.4,99,94,81,30.25,30.05,14,10,19,0.08
2013-1-16,58.8,46.2,36.1,37.4,26.4,8.0,81,51,13,30.41,30.23,19,8,28,0.00
2013-1-17,69.3,52.0,37.2,40.8,33.0,27.2,76,52,24,30.49,30.33,14,6,19,0.00
2013-1-18,66.6,52.5,41.2,50.4,41.4,35.7,91,68,45,30.53,30.33,12,5,17,0.00
2013-1-19,75.6,59.5,47.5,54.9,49.2,45.9,96,72,38,30.32,30.15,11,4,11,0.00
2013-1-20,75.7,61.0,48.9,58.0,52.9,47.0,95,77,48,30.26,30.09,14,4,14,0.00
2013-1-21,73.4,62.3,53.6,60.5,52.6,43.4,93,74,36,30.25,30.12,14,5,14,0.00
2013-1-22,74.7,62.1,50.9,60.1,54.2,48.9,95,78,46,30.31,30.19,13,6,13,0.00
2013-1-23,80.8,68.5,54.5,66.3,62.1,52.5,95,81,55,30.34,30.21,13,9,17,0.00
2013-1-24,83.1,68.9,60.1,67.1,62.8,58.7,99,83,47,30.30,30.12,15,9,23,0.00
2013-1-25,83.1,69.9,59.5,68.5,64.5,59.0,99,85,56,30.17,30.02,17,11,22,0.01
2013-1-26,80.6,70.2,63.3,68.3,63.1,56.2,99,80,45,30.14,30.03,19,11,27,0.00
2013-1-27,78.3,71.7,64.6,71.7,68.5,62.1,99,90,75,30.08,29.95,21,13,35,0.00
2013-1-28,80.2,73.6,70.7,71.9,70.6,69.9,98,91,72,30.07,29.89,25,17,31,0.00
2013-1-29,89.8,76.7,69.3,71.7,66.9,39.7,99,75,34,29.89,29.56,30,18,36,0.00
2013-1-30,69.3,61.1,48.9,40.6,16.6,2.1,37,19,10,30.26,29.76,24,12,34,0.00
2013-1-31,73.9,56.4,40.8,45.4,27.3,10.1,63,37,10,30.35,30.21,15,6,19,0.00
2013-2-1,74.3,63.5,54.5,52.8,46.0,33.2,78,56,23,30.36,30.21,14,6,21,0.00
2013-2-2,81.3,66.8,58.6,60.9,57.3,51.9,88,73,45,30.25,30.15,11,5,17,0.00
2013-2-3,77.7,65.5,55.4,62.4,58.1,52.6,97,79,45,30.31,30.02,11,6,14,0.00
2013-2-4,83.3,70.2,62.1,66.2,63.0,58.5,91,79,51,30.03,29.78,19,9,25,0.00
2013-2-5,90.0,72.5,61.2,70.2,63.6,51.6,98,78,28,29.97,29.83,12,6,15,0.00
2013-2-6,72.0,67.9,62.4,71.7,66.8,61.9,99,96,86,30.00,29.81,17,10,22,0.43
2013-2-7,77.0,67.3,59.9,70.4,65.2,59.6,99,93,78,29.99,29.88,8,4,11,0.00
2013-2-8,74.1,64.4,56.3,64.7,55.7,50.0,99,76,43,30.21,29.99,13,7,19,0.00
2013-2-9,74.3,68.3,61.3,71.5,66.6,59.4,99,94,90,30.08,29.78,20,12,28,0.04
2013-2-10,85.6,72.5,65.5,73.6,61.4,35.0,99,72,29,29.93,29.73,19,12,24,0.00
2013-2-11,67.6,62.9,57.2,60.6,54.6,46.4,99,76,55,29.99,29.88,17,12,22,0.00
2013-2-12,71.2,61.5,57.2,62.5,58.5,56.9,99,90,66,30.00,29.82,12,6,16,0.02
2013-2-13,65.8,57.8,50.0,58.3,42.7,34.7,93,59,33,30.20,29.98,15,7,21,0.00
2013-2-14,70.3,57.3,44.4,50.2,42.6,31.8,90,62,25,30.16,30.03,11,6,15,0.00
2013-2-15,73.8,61.4,49.8,55.5,49.1,42.4,87,66,43,30.33,30.05,18,7,21,0.00
2013-2-16,68.9,56.2,43.9,42.8,29.9,19.6,63,40,16,30.50,30.27,17,8,24,0.00
2013-2-17,73.4,58.8,41.4,58.3,45.8,34.7,80,64,37,30.29,30.01,23,12,32,0.00
2013-2-18,83.7,71.8,66.0,66.7,63.3,58.3,87,75,55,30.01,29.82,20,14,29,0.00
2013-2-19,69.3,64.0,60.1,63.6,50.9,41.1,92,64,42,30.22,29.98,21,14,26,0.00
2013-2-20,76.6,70.5,63.5,70.0,66.0,57.8,94,86,77,30.03,29.67,23,16,30,0.00
2013-2-21,85.3,74.4,66.9,71.8,63.2,49.5,98,71,40,29.81,29.56,24,13,29,0.00
2013-2-22,73.9,66.1,59.0,52.6,45.4,34.6,73,50,24,29.95,29.80,19,11,27,0.00
2013-2-23,73.8,61.7,52.5,51.9,44.6,39.0,78,55,36,30.05,29.87,16,8,21,0.00
2013-2-24,67.8,61.1,51.3,66.7,58.7,47.8,99,92,78,29.91,29.59,11,5,15,0.00
2013-2-25,74.1,67.1,53.8,71.3,35.7,8.6,99,46,10,29.91,29.52,36,17,47,0.01
2013-2-26,77.4,59.7,43.2,47.9,27.8,11.1,70,36,10,30.03,29.85,12,6,19,0.00
2013-2-27,77.5,61.5,48.9,53.3,34.7,13.7,88,47,10,30.20,29.88,18,8,30,0.00
2013-2-28,65.5,55.1,46.0,29.1,22.3,10.4,46,30,12,30.33,30.20,19,8,28,0.00
2013-3-1,78.1,59.0,43.7,43.5,27.3,12.2,62,34,10,30.31,30.12,12,5,17,0.00
2013-3-2,68.9,57.0,45.1,42.1,27.9,13.5,74,39,12,30.44,30.25,18,9,29,0.00
2013-3-3,78.8,61.2,44.4,53.7,39.2,27.7,75,48,16,30.30,30.00,22,11,31,0.00
2013-3-4,92.1,71.7,58.5,62.4,54.5,33.7,88,61,13,30.01,29.73,23,16,30,0.00
2013-3-5,72.5,64.0,52.2,63.7,36.9,8.6,97,47,10,30.33,29.78,26,13,35,0.00
2013-3-6,67.3,53.8,40.5,44.4,22.7,11.4,70,32,12,30.45,30.23,17,8,24,0.00
2013-3-7,74.3,63.2,49.8,62.1,54.9,43.6,86,75,58,30.24,30.11,19,8,19,0.00
2013-3-8,78.1,70.7,66.2,68.8,65.4,62.2,97,84,68,30.12,30.00,24,13,24,0.04
2013-3-9,80.2,72.7,68.7,69.0,67.3,65.2,93,84,67,29.99,29.64,36,20,36,0.00
2013-3-10,80.2,68.4,59.4,69.6,43.7,18.7,99,49,10,30.08,29.58,34,13,34,0.07
2013-3-11,75.2,61.8,48.7,39.0,26.1,9.7,66,32,10,30.18,30.00,17,7,24,0.00
2013-3-12,81.1,63.9,47.7,50.0,42.3,31.9,67,48,17,30.23,30.07,15,6,27,0.00
2013-3-13,75.2,63.1,50.4,57.1,48.4,31.4,92,63,21,30.42,30.23,15,8,21,0.00
2013-3-14,80.6,67.8,56.5,61.6,54.8,51.2,91,66,37,30.39,30.24,16,8,23,0.00
2013-3-15,83.5,68.6,54.1,62.2,55.7,44.9,90,67,26,30.28,30.03,22,11,28,0.00
2013-3-16,82.4,71.1,62.1,67.4,63.1,59.1,97,78,52,30.05,29.78,27,15,36,0.00
2013-3-17,88.9,75.1,65.8,70.2,67.0,64.1,97,78,48,29.83,29.62,17,13,22,0.00
2013-3-18,92.3,77.8,69.8,69.9,67.8,61.5,94,74,36,29.85,29.69,17,7,22,0.00
2013-3-19,82.2,72.0,61.9,70.3,66.2,57.0,96,82,62,29.97,29.80,15,8,21,0.00
2013-3-20,80.2,71.9,64.0,70.3,57.1,44.1,95,63,38,30.14,29.88,22,13,29,0.00
2013-3-21,77.4,70.2,62.6,67.5,60.8,54.1,89,73,56,30.04,29.67,19,10,24,0.00
2013-3-22,86.0,76.0,70.9,72.4,70.2,67.5,93,83,63,29.72,29.61,18,9,23,0.00
2013-3-23,89.6,78.1,71.4,74.7,69.9,63.9,97,78,43,29.68,29.55,12,6,17,0.00
2013-3-24,71.6,65.1,53.2,66.8,35.3,6.7,98,46,10,30.13,29.64,26,12,35,0.00
2013-3-25,66.0,54.9,43.0,31.0,22.3,4.1,60,32,10,30.36,30.12,17,9,25,0.00
2013-3-26,70.0,56.8,44.1,34.1,26.8,13.3,52,34,12,30.48,30.33,16,8,21,0.00
2013-3-27,72.5,62.3,51.8,56.8,46.7,33.0,72,57,43,30.36,30.19,16,9,23,0.00
2013-3-28,78.3,70.2,65.7,61.7,59.9,56.6,82,70,53,30.21,30.11,17,11,24,0.00
2013-3-29,85.3,72.9,64.0,65.3,62.3,59.6,91,71,46,30.17,30.03,18,11,26,0.00
2013-3-30,86.5,74.3,66.2,70.4,66.4,63.2,92,78,52,30.10,29.91,17,10,22,0.00
2013-3-31,91.0,76.7,69.4,70.4,68.7,66.9,96,78,47,29.95,29.77,18,12,25,0.00
2013-4-1,80.6,73.6,69.1,70.1,68.3,66.4,95,84,64,30.02,29.90,16,8,21,0.00
2013-4-2,81.7,74.7,70.0,72.7,71.1,69.3,99,89,71,29.98,29.75,12,8,19,0.02
2013-4-3,79.0,68.4,57.6,71.8,60.5,51.4,98,77,53,30.11,29.80,19,11,25,0.00
2013-4-4,77.5,63.8,54.5,51.6,47.3,40.8,84,60,27,30.20,30.04,15,10,24,0.00
2013-4-5,73.0,60.8,46.9,55.3,47.6,41.9,83,63,39,30.29,30.07,14,7,18,0.00
2013-4-6,83.7,70.4,59.7,62.9,58.7,54.1,90,69,40,30.11,29.88,21,12,27,0.00
2013-4-7,85.3,73.9,65.1,67.4,64.4,62.3,92,74,49,29.93,29.78,20,13,29,0.00
2013-4-8,83.3,75.7,70.7,71.9,69.6,66.9,93,82,63,29.82,29.64,22,15,30,0.00
2013-4-9,90.1,79.1,72.1,73.2,71.5,70.0,93,79,53,29.71,29.54,28,18,36,0.00
2013-4-10,90.3,71.5,59.9,75.4,63.8,48.3,93,77,42,29.84,29.59,25,15,33,0.00
2013-4-11,78.3,61.4,48.2,51.4,44.7,36.6,93,59,23,29.98,29.76,21,10,27,0.35
2013-4-12,78.4,65.5,52.5,60.5,55.0,50.2,93,71,38,29.98,29.85,14,6,18,0.00
2013-4-13,80.6,71.4,64.2,67.2,62.6,60.3,96,75,54,29.94,29.75,20,10,27,0.00
2013-4-14,96.4,78.1,64.4,72.6,67.8,61.9,97,74,39,29.79,29.62,18,8,22,0.00
2013-4-15,89.6,79.4,72.0,72.4,70.4,68.2,96,76,50,29.80,29.67,22,15,26,0.00
2013-4-16,85.5,78.0,74.7,75.8,73.0,70.8,97,85,65,29.86,29.74,16,12,23,0.00
2013-4-17,88.3,78.6,74.3,76.0,75.2,74.1,99,90,65,29.85,29.62,24,15,30,0.00
2013-4-18,85.8,71.6,59.9,76.6,64.2,46.2,99,79,47,30.05,29.60,22,14,30,0.00
2013-4-19,76.3,63.1,54.1,46.9,31.5,12.9,62,36,10,30.32,30.05,19,10,29,0.00
2013-4-20,75.7,63.7,49.5,54.2,43.8,34.1,77,51,22,30.23,30.02,15,7,21,0.00
2013-4-21,81.7,71.5,61.7,65.1,58.5,53.2,87,65,43,30.10,29.99,18,8,24,0.00
2013-4-22,88.3,75.9,67.6,68.2,65.9,61.9,92,73,42,30.07,29.89,15,9,21,0.00
2013-4-23,83.7,75.8,70.5,72.4,69.9,68.0,94,83,62,29.95,29.81,20,12,27,0.00
2013-4-24,74.8,58.0,50.0,73.2,52.6,46.0,98,83,68,30.21,29.94,23,10,30,0.07
2013-4-25,66.9,62.7,60.1,61.4,54.5,48.5,99,76,59,30.28,30.14,13,7,18,0.00
2013-4-26,81.1,73.7,61.7,74.7,71.1,61.4,99,92,74,30.16,30.01,18,11,23,0.01
2013-4-27,82.9,76.4,72.9,75.5,72.4,69.2,99,88,65,30.08,29.91,15,9,21,0.01
2013-4-28,78.3,72.0,66.2,72.9,69.3,64.9,99,92,79,30.03,29.84,15,7,20,0.08
2013-4-29,85.5,74.2,66.4,73.7,70.5,66.1,99,89,61,29.94,29.76,16,6,20,2.50
2013-4-30,83.3,74.4,64.9,77.2,70.6,64.7,99,89,66,29.82,29.69,16,7,20,0.46
2013-5-1,86.4,78.1,72.3,77.0,73.1,70.6,99,85,64,29.89,29.74,15,8,21,0.00
2013-5-2,80.4,70.1,55.6,72.8,60.9,42.4,99,74,53,30.27,29.83,26,14,36,0.00
2013-5-3,72.9,61.7,51.4,42.8,28.8,14.2,62,33,11,30.33,30.08,23,14,34,0.00
2013-5-4,87.1,68.2,51.8,54.2,40.9,22.3,73,43,10,30.11,29.89,14,7,18,0.00
2013-5-5,88.3,72.3,59.0,58.5,52.4,34.5,81,55,15,30.08,29.95,11,6,17,0.00
2013-5-6,82.6,72.3,61.2,64.4,57.7,50.9,85,62,35,30.12,29.96,12,6,17,0.00
2013-5-7,84.6,73.9,62.4,67.1,62.4,57.9,90,69,45,30.07,29.93,17,7,23,0.00
2013-5-8,87.6,77.4,69.3,72.0,68.2,65.2,93,75,48,30.01,29.89,19,11,26,0.00
2013-5-9,84.7,78.9,74.8,75.1,73.8,71.4,95,85,71,29.95,29.78,19,12,24,0.00
2013-5-10,84.9,78.3,75.6,78.3,73.9,67.1,99,87,63,29.93,29.79,21,10,27,0.00
2013-5-11,89.4,78.4,69.8,72.4,68.8,62.5,99,75,41,30.08,29.92,14,8,19,0.33
2013-5-12,78.8,69.8,62.4,73.5,66.4,62.0,99,89,73,30.18,30.03,12,5,15,2.21
2013-5-13,82.8,73.5,63.7,68.9,64.2,58.1,99,76,44,30.26,30.16,15,6,18,0.00
2013-5-14,88.2,77.3,69.4,75.5,70.2,66.3,93,80,56,30.22,30.05,17,8,24,0.00
2013-5-15,83.3,77.1,73.6,77.3,74.0,71.9,99,90,75,30.10,29.88,24,13,32,0.07
2013-5-16,92.3,80.7,72.1,77.4,74.5,71.5,98,83,59,29.90,29.71,20,14,26,0.00
2013-5-17,94.3,83.0,74.8,76.8,74.7,68.6,98,78,50,29.89,29.76,19,13,28,0.00
2013-5-18,92.8,83.0,76.8,77.1,73.1,64.7,95,75,42,29.90,29.80,23,14,29,0.00
2013-5-19,91.6,82.9,77.2,76.4,74.4,68.9,96,77,48,29.85,29.72,23,17,31,0.00
2013-5-20,91.0,82.6,77.5,76.6,75.2,73.3,95,79,57,29.83,29.70,22,15,29,0.00
2013-5-21,91.4,83.0,77.4,77.4,76.3,74.3,95,81,59,29.79,29.67,19,12,25,0.00
2013-5-22,89.2,82.3,77.4,79.9,77.2,75.3,99,85,67,29.89,29.75,12,7,17,0.18
2013-5-23,93.0,83.3,77.4,78.9,77.0,75.6,97,82,58,29.99,29.85,15,8,20,0.00
2013-5-24,92.1,81.7,73.9,78.1,75.7,69.7,99,83,55,30.07,29.94,16,10,21,0.11
2013-5-25,83.7,79.1,72.5,79.6,77.1,72.1,99,94,78,30.10,29.99,17,11,28,1.39
2013-5-26,89.8,81.4,76.1,77.5,75.1,71.2,99,83,57,30.06,29.95,15,10,19,0.00
2013-5-27,90.5,82.0,75.7,78.6,75.5,70.7,99,82,56,30.01,29.85,19,12,26,0.00
2013-5-28,90.5,83.0,78.1,77.2,75.7,74.1,95,80,61,29.92,29.76,25,17,30,0.00
2013-5-29,87.8,82.0,78.6,78.2,76.2,75.2,93,83,68,29.83,29.72,26,15,32,0.00
2013-5-30,94.3,84.6,78.3,78.6,76.9,75.5,95,79,56,29.82,29.73,18,13,24,0.00
2013-5-31,96.6,85.7,78.6,80.0,77.7,75.7,97,79,53,29.87,29.75,20,12,27,0.00
2013-6-1,97.7,86.5,80.2,79.1,77.6,76.3,92,76,51,29.89,29.76,18,13,26,0.00
2013-6-2,91.6,82.8,75.7,84.2,77.0,73.0,99,84,55,29.99,29.85,12,5,15,0.54
2013-6-3,93.9,82.8,73.2,77.7,74.0,70.9,99,77,50,29.95,29.81,11,5,15,0.00
2013-6-4,93.2,82.5,73.0,78.4,73.0,69.0,99,75,47,29.89,29.79,11,5,17,0.00
2013-6-5,95.5,83.5,73.9,79.0,74.2,70.7,98,76,48,29.86,29.77,14,7,18,0.00
2013-6-6,97.3,85.8,76.5,79.1,75.6,72.5,97,75,45,29.84,29.71,11,5,17,0.00
2013-6-7,93.7,80.4,69.4,80.9,73.5,69.2,99,82,51,29.92,29.81,21,7,27,0.79
2013-6-8,92.5,79.4,69.1,79.5,74.4,68.8,99,86,57,29.91,29.76,14,6,21,0.01
2013-6-9,97.0,84.6,78.3,81.9,77.5,67.0,99,81,47,29.93,29.80,14,8,19,0.00
2013-6-10,95.0,85.5,77.4,81.4,76.9,74.0,99,77,52,29.95,29.89,14,6,17,0.00
2013-6-11,92.1,83.6,77.2,81.3,76.8,74.5,95,81,58,30.00,29.93,14,6,21,0.17
2013-6-12,96.6,86.4,79.0,82.6,77.5,68.1,99,77,40,30.02,29.93,17,9,24,0.00
2013-6-13,93.4,85.0,80.1,81.7,79.3,76.7,97,84,61,30.01,29.89,15,7,23,0.01
2013-6-14,96.3,85.5,79.9,82.1,79.6,77.1,98,84,58,29.96,29.84,14,8,20,0.00
2013-6-15,97.2,87.1,80.1,80.7,77.2,70.5,98,75,43,29.95,29.86,15,9,21,0.00
2013-6-16,99.3,86.8,78.8,81.2,77.9,76.2,96,77,50,29.98,29.90,18,10,24,0.00
2013-6-17,98.6,87.6,80.1,81.9,77.7,73.7,97,75,48,29.95,29.84,18,11,22,0.00
2013-6-18,99.7,87.7,78.6,80.9,76.7,70.8,95,73,41,29.95,29.85,15,10,22,0.00
2013-6-19,98.1,87.0,78.8,79.3,75.9,70.9,96,72,45,29.99,29.88,18,11,22,0.00
2013-6-20,97.0,86.9,79.0,80.7,77.3,72.5,97,75,47,30.03,29.92,16,10,24,0.00
2013-6-21,98.1,87.5,79.2,80.4,75.9,68.2,97,72,39,30.05,29.97,16,10,26,0.00
2013-6-22,98.4,87.3,78.8,81.7,75.4,65.7,99,72,36,30.01,29.90,18,10,24,0.00
2013-6-23,97.2,87.1,79.0,78.8,75.5,66.9,95,71,38,29.97,29.87,18,11,24,0.00
2013-6-24,96.4,87.1,80.4,80.7,76.7,71.4,96,74,45,30.00,29.91,20,13,30,0.00
2013-6-25,97.0,87.0,79.5,80.1,76.5,72.0,96,74,45,29.99,29.88,22,15,27,0.00
2013-6-26,99.9,88.2,80.4,81.2,77.4,72.2,96,74,43,29.95,29.88,19,12,24,0.00
2013-6-27,101.1,87.7,78.3,80.0,76.6,70.9,95,73,38,29.99,29.90,15,9,21,0.00
2013-6-28,101.5,88.7,78.3,80.0,75.1,64.2,97,68,31,29.98,29.81,14,8,19,0.00
2013-6-29,109.0,92.5,78.4,78.4,70.5,58.9,89,55,21,29.86,29.69,13,7,19,0.00
2013-6-30,86.7,80.9,74.5,74.7,72.4,69.2,98,76,56,29.93,29.74,25,6,35,0.22
2013-7-1,101.5,85.9,74.8,75.9,68.0,53.0,99,62,20,29.96,29.83,13,5,17,0.00
2013-7-2,99.0,86.7,79.0,75.7,64.1,42.5,82,53,15,30.02,29.91,12,5,17,0.00
2013-7-3,101.3,85.0,74.7,74.3,66.8,56.0,83,58,23,30.00,29.87,12,6,17,0.00
2013-7-4,95.2,87.8,75.2,76.4,70.4,59.4,90,59,31,29.97,29.88,12,7,19,0.00
2013-7-5,95.5,85.6,75.7,78.5,72.1,61.5,91,67,33,29.95,29.83,14,6,19,0.00
2013-7-6,94.3,85.4,74.3,79.2,74.7,70.6,91,72,49,29.91,29.81,18,8,21,0.00
2013-7-7,97.0,86.5,79.5,79.8,75.3,70.4,93,71,44,29.97,29.85,18,8,25,0.00
2013-7-8,94.8,85.0,76.8,80.7,77.0,73.6,99,79,54,30.09,29.96,18,8,22,0.07
2013-7-9,95.4,87.0,79.0,82.2,77.5,73.9,99,75,53,30.11,30.00,15,8,21,0.00
2013-7-10,96.6,86.9,79.3,81.6,76.5,72.4,95,73,49,30.06,29.94,13,7,19,0.00
2013-7-11,98.2,87.4,78.3,80.0,75.2,68.6,92,70,40,29.99,29.88,15,8,20,0.00
2013-7-12,98.6,87.5,77.7,78.8,74.3,68.9,92,68,39,29.94,29.88,15,8,25,0.00
2013-7-13,99.3,87.9,78.1,78.7,72.6,64.7,90,64,35,29.96,29.85,12,6,18,0.00
2013-7-14,99.0,87.7,78.8,78.3,74.0,65.3,89,67,34,29.90,29.81,16,9,21,0.00
2013-7-15,95.7,86.2,80.6,81.9,76.2,72.6,89,73,49,29.95,29.84,16,10,22,0.06
2013-7-16,88.5,80.6,76.1,80.5,77.5,74.9,99,91,68,30.04,29.92,17,7,22,0.63
2013-7-17,77.9,75.8,73.8,77.7,75.6,73.5,99,99,99,30.13,30.02,14,5,24,1.44
2013-7-18,90.1,80.1,73.8,80.2,76.1,73.5,99,88,62,30.11,29.96,13,6,18,0.19
2013-7-19,93.6,83.7,75.2,83.4,76.9,72.4,99,82,52,30.04,29.90,14,5,18,0.00
2013-7-20,93.4,83.6,77.2,81.9,78.0,74.6,99,85,58,29.97,29.84,12,6,18,0.14
2013-7-21,95.4,86.5,79.2,83.5,79.5,76.6,99,82,56,29.94,29.86,17,10,23,0.00
2013-7-22,96.3,86.6,80.8,82.8,80.3,78.0,99,83,56,29.98,29.88,20,12,26,0.00
2013-7-23,98.1,86.9,79.0,80.8,78.6,75.6,99,78,50,29.99,29.88,18,12,26,0.00
2013-7-24,98.8,87.5,79.5,81.8,78.3,74.8,99,77,48,29.96,29.86,14,10,20,0.00
2013-7-25,100.0,87.2,78.3,83.0,78.2,74.9,99,77,46,30.01,29.94,15,9,20,0.00
2013-7-26,100.6,87.7,79.3,81.2,78.4,75.7,99,76,47,30.02,29.89,18,12,24,0.00
2013-7-27,104.4,88.6,79.7,81.7,77.4,69.6,98,73,33,29.95,29.79,18,9,24,0.00
2013-7-28,98.6,88.1,80.6,81.0,78.4,75.0,96,75,47,29.92,29.84,19,12,28,0.00
2013-7-29,96.4,86.9,79.7,81.8,78.2,75.1,99,77,52,30.03,29.91,19,14,27,0.00
2013-7-30,98.4,87.3,80.2,82.4,78.7,73.2,99,78,46,30.08,29.97,20,12,25,0.00
2013-7-31,101.3,87.2,77.4,81.4,76.8,70.1,99,75,38,30.07,29.94,12,8,18,0.00
2013-8-1,99.7,88.1,77.2,80.9,75.5,66.6,98,71,36,30.00,29.90,13,8,20,0.00
2013-8-2,100.2,87.9,78.4,80.7,75.4,66.6,95,70,34,29.98,29.87,17,8,21,0.00
2013-8-3,100.8,88.1,78.8,80.5,77.4,74.5,93,73,45,30.00,29.92,17,9,21,0.00
2013-8-4,99.0,88.6,81.0,82.6,77.4,69.7,98,72,46,30.03,29.94,18,11,22,0.00
2013-8-5,99.7,88.3,80.2,81.9,77.7,73.4,98,74,45,30.03,29.89,20,12,26,0.00
2013-8-6,101.8,88.4,80.6,81.5,77.3,69.1,99,74,35,29.94,29.83,21,13,30,0.00
2013-8-7,102.7,88.6,79.5,80.7,77.3,71.5,99,73,39,29.91,29.80,20,13,26,0.00
2013-8-8,101.7,88.3,80.1,81.2,77.9,71.5,97,74,39,29.90,29.80,18,11,23,0.00
2013-8-9,99.0,87.5,78.6,80.7,77.6,73.3,97,75,45,29.95,29.85,15,7,21,0.00
2013-8-10,96.3,85.8,80.1,82.8,79.4,75.8,99,82,54,30.00,29.92,15,6,20,0.25
2013-8-11,97.2,86.7,79.0,83.7,77.7,71.7,99,77,46,30.03,29.95,16,6,21,0.00
2013-8-12,97.0,86.7,77.7,80.3,77.0,72.4,98,75,47,30.05,29.94,15,8,21,0.00
2013-8-13,102.7,89.0,79.3,82.1,77.2,68.6,99,72,34,30.03,29.86,15,9,21,0.00
2013-8-14,103.3,88.9,78.8,80.4,75.0,60.4,95,68,25,29.98,29.85,15,9,21,0.00
2013-8-15,99.0,87.2,78.1,79.0,75.6,68.4,90,71,42,29.97,29.87,14,7,20,0.00
2013-8-16,101.1,88.9,79.3,81.2,76.3,65.9,97,70,34,29.99,29.85,18,6,26,0.25
2013-8-17,98.4,84.7,74.7,80.0,75.1,68.5,99,76,38,29.99,29.87,14,7,21,0.02
2013-8-18,97.7,85.7,76.3,80.7,71.6,56.7,99,67,33,30.00,29.93,15,5,19,0.00
2013-8-19,94.6,84.5,73.8,77.8,71.3,62.5,91,67,36,30.02,29.90,14,7,21,0.00
2013-8-20,85.3,80.2,77.4,85.1,76.7,74.3,99,89,79,30.00,29.91,10,5,16,0.12
2013-8-21,93.7,85.3,78.3,83.3,77.7,72.9,99,80,55,30.03,29.96,14,6,18,0.00
2013-8-22,96.6,86.4,78.3,82.3,77.3,73.0,99,76,47,30.04,29.90,12,6,17,0.00
2013-8-23,95.4,86.2,78.8,81.0,76.7,71.5,96,75,50,29.98,29.87,14,6,19,0.00
2013-8-24,95.7,86.9,77.5,81.0,77.0,71.5,99,74,47,29.98,29.90,19,8,23,0.00
2013-8-25,96.3,86.5,77.4,79.5,77.0,73.1,98,75,48,30.03,29.93,13,6,19,0.00
2013-8-26,88.0,81.4,78.3,80.2,77.8,75.4,99,89,70,30.06,29.98,14,5,18,0.13
2013-8-27,93.9,83.1,75.2,85.1,77.5,70.4,99,85,55,30.06,29.97,12,5,18,0.06
2013-8-28,94.6,84.8,76.1,82.1,77.4,73.3,99,80,52,30.07,29.98,16,6,21,0.00
2013-8-29,97.2,86.8,78.1,81.6,74.6,61.7,99,71,32,30.06,29.95,13,5,18,0.00
2013-8-30,98.2,87.5,77.9,79.7,73.7,65.7,93,67,36,30.02,29.88,14,6,21,0.00
2013-8-31,98.4,86.6,77.7,78.6,73.8,67.7,92,68,37,29.94,29.81,14,7,20,0.00
2013-9-1,100.2,87.7,77.9,79.6,75.2,67.7,92,69,36,29.91,29.80,15,8,21,0.00
2013-9-2,99.5,83.7,73.8,81.7,77.7,72.1,99,84,42,29.93,29.82,20,6,27,1.00
2013-9-3,96.3,85.3,75.2,82.8,76.5,69.6,99,78,44,29.99,29.86,10,5,15,0.00
2013-9-4,96.6,86.0,76.8,81.2,76.1,69.0,99,75,42,30.02,29.91,13,5,17,0.00
2013-9-5,94.5,86.0,78.6,80.6,76.9,73.5,95,76,51,30.04,29.96,15,7,21,0.00
2013-9-6,95.4,85.4,77.7,82.2,77.3,73.4,99,78,50,30.05,29.93,13,6,17,0.02
2013-9-7,93.2,83.4,76.6,83.8,77.8,76.0,99,84,58,30.00,29.88,12,5,17,0.26
2013-9-8,86.7,79.8,76.3,82.0,77.5,75.0,99,93,77,29.96,29.85,15,5,20,0.32
2013-9-9,89.4,81.0,74.7,82.4,77.2,74.4,99,89,64,29.93,29.85,16,8,21,0.69
2013-9-10,87.1,79.7,75.4,84.0,78.1,74.3,99,95,77,30.01,29.90,15,6,19,0.52
2013-9-11,89.2,80.0,76.1,82.0,78.5,75.9,99,95,74,30.03,29.94,12,4,20,0.40
2013-9-12,91.2,82.3,75.9,83.9,77.6,74.1,99,87,59,30.00,29.87,14,7,17,0.02
2013-9-13,92.1,83.0,75.0,81.0,76.5,72.9,99,82,56,29.92,29.79,16,8,21,0.00
2013-9-14,91.6,83.6,75.6,82.3,77.2,73.2,99,82,56,29.88,29.80,18,9,21,0.00
2013-9-15,88.5,82.0,77.0,83.0,79.0,76.8,99,91,73,29.92,29.84,21,10,26,0.28
2013-9-16,85.3,79.9,76.5,83.3,79.1,76.2,99,97,84,29.96,29.87,18,8,23,0.99
2013-9-17,90.5,82.5,77.0,84.5,79.0,75.8,99,90,69,29.97,29.88,16,7,22,0.35
2013-9-18,87.8,81.4,76.8,83.4,78.7,75.8,99,92,76,29.96,29.85,15,6,21,0.15
2013-9-19,90.0,83.4,77.5,83.6,79.7,77.3,99,89,70,29.89,29.78,14,6,19,0.01
2013-9-20,90.5,82.0,75.4,85.2,80.8,75.1,99,96,76,29.82,29.67,15,7,22,1.84
2013-9-21,80.6,75.4,72.5,76.9,73.4,69.6,99,94,77,29.83,29.71,17,9,26,2.51
2013-9-22,88.0,76.9,66.2,70.3,64.6,58.0,94,69,38,29.83,29.72,12,6,17,0.00
2013-9-23,92.7,78.6,65.7,75.8,69.6,62.4,99,76,44,29.81,29.70,10,4,16,0.00
2013-9-24,96.3,83.9,72.3,75.8,72.1,66.2,99,71,39,29.89,29.77,8,4,13,0.00
2013-9-25,96.3,84.0,73.2,76.5,70.5,51.0,99,70,23,29.88,29.76,9,5,14,0.00
2013-9-26,95.0,83.2,74.8,82.4,76.3,70.7,99,82,47,29.86,29.78,10,5,18,0.00
2013-9-27,94.5,85.5,78.8,83.8,79.8,77.5,99,84,60,29.88,29.78,16,9,21,0.00
2013-9-28,95.2,86.2,80.1,83.6,80.2,75.5,99,84,54,29.93,29.82,16,10,21,0.01
2013-9-29,95.4,83.1,76.3,79.7,77.8,76.0,99,85,56,30.00,29.85,9,4,13,0.85
2013-9-30,92.5,81.1,72.0,80.5,76.9,71.7,99,88,60,29.91,29.77,9,5,16,0.00
2013-10-1,94.8,84.3,77.2,83.9,79.4,76.9,99,87,58,29.89,29.78,12,7,21,0.00
2013-10-2,93.6,83.7,77.2,81.8,78.3,73.6,99,85,53,29.92,29.82,12,6,17,0.02
2013-10-3,92.7,83.7,76.6,81.8,76.4,69.8,99,81,48,29.91,29.82,13,6,17,0.00
2013-10-4,94.5,83.2,75.2,80.9,76.4,73.9,99,82,52,29.90,29.81,13,7,20,0.00
2013-10-5,93.0,83.0,73.6,80.7,77.2,73.3,99,84,58,29.92,29.82,13,5,18,0.00
2013-10-6,81.1,70.7,58.3,80.0,56.5,42.6,99,65,26,30.11,29.91,16,8,23,0.12
2013-10-7,87.8,72.0,58.6,59.3,49.6,30.1,83,53,13,30.16,30.02,12,5,15,0.00
2013-10-8,85.5,72.8,59.9,62.9,57.7,51.3,87,62,32,30.08,29.96,12,4,17,0.00
2013-10-9,89.4,76.7,65.7,70.3,65.9,62.1,92,71,44,30.03,29.92,13,5,21,0.00
2013-10-10,90.0,80.1,71.4,74.5,70.3,67.8,92,74,50,29.99,29.87,14,7,24,0.00
2013-10-11,93.9,83.8,77.7,81.0,77.8,74.1,97,83,59,29.89,29.79,16,10,22,0.00
2013-10-12,94.1,84.9,79.2,83.7,79.4,75.9,99,85,56,29.98,29.86,17,9,22,0.00
2013-10-13,90.5,82.3,78.8,82.2,78.6,74.1,99,89,62,30.08,29.95,16,8,21,0.28
2013-10-14,86.0,80.8,77.4,80.2,76.8,73.5,99,88,71,30.05,29.89,15,8,19,0.02
2013-10-15,90.1,81.0,73.6,78.5,73.9,70.4,99,81,55,29.95,29.83,13,6,17,0.00
2013-10-16,84.4,75.8,65.3,78.5,69.8,62.1,99,83,61,30.04,29.86,13,8,18,0.00
2013-10-17,82.8,71.4,64.4,64.9,61.3,57.3,90,72,48,30.08,29.96,11,7,15,0.00
2013-10-18,82.8,73.8,68.4,79.2,70.9,61.8,99,91,73,29.99,29.82,9,6,13,0.74
2013-10-19,72.7,64.4,61.7,72.4,62.6,59.2,99,94,87,30.17,29.92,19,12,24,0.01
2013-10-20,62.2,62.2,62.2,59.6,59.6,59.6,91,91,91,30.12,29.93,13,13,14,0.01
2013-10-21,77.7,64.4,62.2,77.5,62.1,59.6,99,92,91,29.98,29.83,13,12,14,0.01
2013-10-22,81.3,70.4,59.7,70.6,60.4,48.9,99,74,43,30.11,30.00,16,8,16,0.01
2013-10-23,81.7,66.6,52.9,56.0,50.7,40.9,93,63,24,30.19,30.08,8,4,8,0.00
2013-10-24,82.2,69.7,55.9,66.0,59.8,54.5,95,74,44,30.20,30.11,12,4,12,0.00
2013-10-25,82.4,76.9,63.3,71.0,67.4,63.0,99,73,60,30.26,30.17,17,10,21,0.00
2013-10-26,85.5,77.0,71.4,70.9,68.4,66.0,92,76,53,30.18,30.06,14,8,21,0.00
2013-10-27,88.3,76.8,67.3,76.5,70.6,65.8,99,83,49,30.07,29.95,12,5,17,0.00
2013-10-28,87.8,78.3,71.1,76.9,72.8,70.3,99,85,60,30.05,29.96,16,9,23,0.00
2013-10-29,88.0,80.5,75.4,77.8,74.9,73.2,98,84,63,30.06,29.94,16,11,24,0.00
2013-10-30,89.4,81.7,78.1,80.3,78.0,76.1,99,89,65,29.99,29.81,23,13,30,0.01
2013-10-31,90.9,81.7,73.9,81.4,74.1,61.8,99,80,45,29.88,29.77,16,7,21,0.01
2013-11-1,89.8,76.4,68.4,75.5,71.0,67.5,98,85,53,30.00,29.80,12,4,16,0.08
2013-11-2,70.5,67.3,65.3,65.5,54.0,48.3,84,63,49,30.24,30.00,12,4,16,0.00
2013-11-3,67.1,67.1,67.1,54.1,54.1,54.1,63,63,63,30.22,30.00,4,4,4,0.00
2013-11-4,67.1,52.2,0.0,54.1,54.1,54.1,63,49,63,30.03,29.80,4,3,4,0.00
2013-11-5,0.0,0.0,0.0,54.1,54.1,54.1,0,0,100,29.87,29.78,0,0,0,0.00
2013-11-6,0.0,0.0,0.0,54.1,54.1,54.1,0,0,100,30.13,29.83,0,0,0,0.00
2013-11-7,0.0,0.0,0.0,54.1,54.1,54.1,0,0,100,30.30,30.14,0,0,0,0.00
2013-11-8,0.0,0.0,0.0,54.1,54.1,54.1,0,0,100,30.25,30.06,0,0,0,0.00
2013-11-9,0.0,0.0,0.0,54.1,54.1,54.1,0,0,100,30.06,29.99,0,0,0,0.00
2013-11-10,0.0,0.0,0.0,54.1,54.1,54.1,0,0,100,30.14,30.02,0,0,0,0.00
2013-11-11,0.0,0.0,0.0,54.1,54.1,54.1,0,0,100,30.12,30.00,0,0,0,0.00
2013-11-12,0.0,0.0,0.0,54.1,54.1,54.1,0,0,100,30.43,30.09,0,0,0,0.00
2013-11-13,0.0,0.0,0.0,54.1,54.1,54.1,0,0,100,30.51,30.32,0,0,0,0.00
2013-11-14,66.2,53.2,0.0,57.9,52.6,34.6,89,61,46,30.31,30.02,9,3,11,0.04
2013-11-15,82.4,67.0,55.2,66.2,59.5,53.2,95,79,46,30.02,29.85,12,5,17,0.00
2013-11-16,82.0,74.4,67.5,77.1,71.8,65.7,99,92,75,29.90,29.75,17,10,23,0.00
2013-11-17,88.2,78.1,72.9,74.3,72.7,70.7,97,85,57,29.90,29.76,12,8,18,0.00
2013-11-18,82.6,75.0,70.0,75.5,71.8,63.6,99,90,74,30.04,29.89,12,5,17,0.00
2013-11-19,73.9,69.6,66.9,63.7,60.6,56.4,88,73,63,30.06,29.95,15,11,20,0.00
2013-11-20,81.7,73.8,66.7,74.0,69.2,62.6,95,86,71,29.96,29.81,14,9,17,0.00
2013-11-21,86.0,78.5,73.9,76.7,74.5,73.1,99,88,67,30.01,29.89,17,10,24,0.00
2013-11-22,76.5,57.8,41.2,76.2,57.5,40.9,99,99,89,30.30,29.99,20,11,28,2.17
2013-11-23,47.5,43.4,39.6,44.1,41.9,39.3,99,95,83,30.40,30.30,18,12,24,0.01
2013-11-24,46.8,44.6,40.6,45.4,42.5,37.1,99,92,85,30.41,30.28,13,9,20,0.09
2013-11-25,45.1,42.1,39.7,44.6,41.3,38.5,99,97,89,30.27,30.03,14,10,19,0.39
2013-11-26,50.5,44.9,41.9,43.1,39.2,35.7,99,82,59,30.36,30.10,24,11,30,0.08
2013-11-27,54.1,44.7,39.2,38.0,32.0,24.5,85,64,34,30.48,30.35,15,7,19,0.00
2013-11-28,60.3,48.2,37.0,44.8,38.9,31.5,88,71,52,30.44,30.32,9,5,11,0.00
2013-11-29,68.9,55.5,45.5,58.7,51.1,44.4,97,86,67,30.44,30.34,16,9,21,0.00
2013-11-30,75.4,62.5,51.4,63.0,56.5,50.1,95,82,59,30.35,30.19,13,5,16,0.00
2013-12-1,79.2,66.7,55.9,65.6,60.9,54.5,97,83,58,30.20,29.95,10,4,14,0.00
2013-12-2,79.5,67.0,58.1,67.5,62.3,57.3,98,86,59,29.95,29.70,9,5,13,0.01
2013-12-3,84.2,70.1,60.3,69.3,64.5,59.7,99,84,53,29.75,29.60,12,7,15,0.01
2013-12-4,84.2,76.5,69.8,71.7,70.7,68.6,97,83,65,29.78,29.67,12,9,17,0.00
2013-12-5,80.1,64.1,43.5,72.2,59.5,36.5,99,85,66,30.00,29.75,19,10,24,0.00
2013-12-6,48.7,41.6,35.8,37.4,34.3,28.3,89,76,62,30.38,29.99,18,13,24,0.00
2013-12-7,36.3,34.8,33.8,31.3,29.0,26.8,89,79,73,30.44,30.27,17,9,21,0.00
2013-12-8,47.7,40.8,33.8,45.1,38.0,31.1,97,90,77,30.28,30.04,8,5,12,0.01
2013-12-9,54.9,48.0,41.5,53.5,47.1,40.2,99,97,92,30.29,30.01,17,9,24,0.06
2013-12-10,49.5,43.2,36.7,40.1,33.1,27.6,96,69,43,30.48,30.30,16,9,24,0.00
2013-12-11,55.6,50.3,45.3,38.7,35.8,33.4,67,58,46,30.49,30.30,9,5,13,0.00
2013-12-12,58.3,52.3,46.2,40.8,37.4,35.2,71,57,44,30.56,30.33,12,7,17,0.00
2013-12-13,67.8,56.8,48.0,56.7,47.4,39.1,80,71,59,30.34,29.86,10,5,14,0.00
2013-12-14,70.9,58.3,45.3,53.9,45.7,35.9,90,66,28,30.33,29.87,20,9,25,0.00
2013-12-15,61.7,48.2,38.7,38.5,34.0,27.9,82,61,29,30.44,30.29,9,4,12,0.00
2013-12-16,67.8,51.2,36.1,46.5,37.6,27.3,85,64,22,30.35,30.22,8,3,10,0.00
2013-12-17,70.7,48.7,41.2,54.5,44.3,38.8,94,86,48,30.33,30.22,11,3,11,0.00
2013-12-18,74.1,64.0,48.9,58.2,54.9,46.4,91,73,49,30.29,30.07,17,7,17,0.00
2013-12-19,79.2,69.9,62.1,66.6,63.3,57.0,94,80,62,30.07,29.79,22,14,27,0.00
2013-12-20,81.9,72.9,66.7,71.3,68.9,65.2,98,88,68,29.83,29.62,26,16,34,0.00
2013-12-21,80.6,72.0,61.3,72.0,64.5,53.5,94,78,50,29.79,29.55,25,11,37,0.01
2013-12-22,73.8,61.9,47.5,56.5,45.1,33.1,89,59,23,30.33,29.78,18,9,28,0.00
2013-12-23,61.2,48.5,38.8,35.8,28.7,18.5,75,50,19,30.53,30.33,15,7,19,0.00
2013-12-24,62.8,50.0,36.0,47.7,39.0,30.0,82,67,41,30.53,30.25,11,6,15,0.00
2013-12-25,69.4,57.1,48.2,59.2,52.5,44.4,95,85,63,30.31,30.19,10,6,14,0.04
2013-12-26,57.9,53.4,50.2,56.9,50.7,48.1,97,91,78,30.38,30.27,12,8,16,0.11
2013-12-27,58.5,52.7,49.3,53.4,50.5,49.0,99,92,78,30.40,30.30,9,5,11,0.12
2013-12-28,63.0,53.6,48.0,50.0,44.5,36.8,96,75,39,30.30,30.04,6,3,8,0.00
2013-12-29,69.4,56.1,44.6,53.7,46.8,41.2,89,73,50,30.08,29.98,9,3,12,0.00
2013-12-30,45.9,44.7,41.9,35.8,34.4,32.4,74,67,63,30.39,30.25,16,8,20,0.01
2013-12-31,47.3,45.8,42.4,43.8,39.7,31.7,92,80,58,30.45,30.26,11,3,11,0.08
2014-1-1,58.3,52.2,45.5,57.3,49.7,43.3,97,91,78,30.27,29.99,5,3,8,0.01
2014-1-2,58.5,51.7,40.8,57.4,38.2,27.2,97,63,34,30.46,30.04,21,10,30,0.00